Phoenix-Mesa-Gateway Airport
KIWA : now visible

Airfield :











YOU CAN JOIN US ON...

 
LOGIN :

Register | Disclaimer

   EN    FR    IT 

 









Legend :    VFR   Marginal VFR   IFR   Intensive IFR   Very Intensive IFR
Visi :
Ceiling :
>= 8 km
>= 3000ft
5 to 8 km
1000 to 3000 ft
1500m to 5 km
500 to 1000 ft
800 to 1500m
200 to 500 ft
< 800m
< 200 ft
Symbols :   Thunderstorms  Fog  Heavy snow  Heavy precipitations  Wind > 20 kt






- Airport Elevation : 1382 ft


KIWA - Phoenix-Mesa-Gateway

CURRENT METAR :
  • 200815Z AUTO 13008KT 10SM CLR 22/M04 A2969 RMK AO2 T02201042

EXPIRED METARs :
  • 200755Z AUTO 15006KT 10SM CLR 23/M06 A2970 RMK AO2 T02341065
  • 200735Z AUTO 22005KT 10SM CLR 25/M06 A2970 RMK AO2 T02451064
  • 200715Z AUTO 19004KT 10SM CLR 25/M06 A2970 RMK AO2 T02511061
  • 200650Z 23006KT 10SM SKC 25/M07 A2970
  • 200550Z 21006KT 10SM SKC 27/M06 A2969

TAF KIWA
Valid from the 20 at 06:00 until the 21 at 06:00 UTC


200528Z 2006/2106 24007KT P6SM FEW250
FM200800 14007KT P6SM SCT250
FM200900 15006KT P6SM SCT250
FM201400 17009KT P6SM SCT250
FM201700 23017G28KT P6SM FEW250
FM210500 17006KT P6SM SKC AMD LTD TO CLD VIS AND WIND TIL 201200
KZAB FIR / North America



MET'MAP, your aeronautical weather chart ! - Copyright ORBIFLY December 2007 - Disclaimer

ORBIFLY MET'MAP TEAM :

Programming & Development : Alexandra Zaïnal
Original concept : Baudouin d'Aumeries
Technical & hardware support : Manuel Goepfert
Assistance : Marc-Olivier Méhu

Contact : metmap@orbifly.com




SOURCES & CREDITS :

   NOAA       Earth
Advisory